Startpagina
METAR-TAF:

METAR-TAF

Vliegvelden :

Koeweit, Koeweit

breedte: 29-13N, lengte: 047-59E, hoogte: 55 m

Actueel weer

Dit bericht is 38 minuten geleden gemaakt, om 19:00 UTC
Wind 5 kt uit het zuiden
Temperatuur 26°C
Vochtigheid 30%
Druk 1008 hPa
Zicht 10 km of meer
geen wolken onder 1500 m en geen cumulonimbus

METAR: OKBK 231900Z 18005KT CAVOK 26/07 Q1008 NOSIG

Tijdstip: 22:38 (19:38 UTC)

Verwachting

Dit bericht is 2 uur en het 53 minuten geleden gemaakt, om 16:45 UTC
Verwachting geldig van 23 om 18 UTC tot 24 om 24 UTC
Wind 10 kt uit het oostzuidoosten
Zicht: 7000 m

TAF: OKBK 231645Z 2318/2424 12010KT 7000 NSC

Waarnemingen en weersverwachtingen van meer dan 4000 vliegvelden (METAR en TAF).

De beschikbare stations zijn de gele en rode punten op de kaart.

Ga met uw muis naar het station om de naam te zien.

Klik dan om waarnemingen en weersverwachtingen te zien.

kaart wijzigen: klik op de groene knoppen met een zwart kruis om in te zoomen, op de groene knop met een streepje om uit te zoomen of op de groene pijlen voor aangrenzende kaarten.


METAR-TAF: